Time;durP1;ratioP1;P1;durP2;ratioP2;P2;SDS_P1;SDS_P2;PMS_P1;PMS_P2;Temp;Humidity;BMP_temperature;BMP_pressure;BME280_temperature;BME280_humidity;BME280_pressure;Samples;Min_cycle;Max_cycle;Signal;HPM_P1;HPM_P2
2023/09/21 00:00:34;;;;;;;1.42;1.33;;;16.30;99.90;;;;;;5013041;28;20028;-80
2023/09/21 00:02:59;;;;;;;2.80;1.60;;;16.30;99.90;;;;;;4999375;28;20060;-79
2023/09/21 00:05:31;;;;;;;2.47;1.65;;;16.30;99.90;;;;;;5005857;28;20525;-79
2023/09/21 00:07:57;;;;;;;1.67;1.40;;;16.30;99.90;;;;;;4998772;28;20022;-80
2023/09/21 00:10:23;;;;;;;1.90;1.27;;;16.20;99.90;;;;;;4997417;28;20077;-79
2023/09/21 00:12:49;;;;;;;3.10;1.52;;;16.20;99.90;;;;;;4997187;28;20030;-80
2023/09/21 00:15:19;;;;;;;1.70;1.45;;;16.20;99.90;;;;;;5004891;28;20018;-80
2023/09/21 00:17:49;;;;;;;1.80;1.50;;;16.20;99.90;;;;;;5005082;28;20085;-79
2023/09/21 00:21:00;;;;;;;2.10;1.35;;;16.20;99.90;;;;;;5001421;28;20032;-81
2023/09/21 00:23:06;;;;;;;6.07;1.80;;;16.10;99.90;;;;;;5001261;28;20128;-80
2023/09/21 00:25:32;;;;;;;2.33;1.77;;;16.10;99.90;;;;;;5009319;28;20029;-80
2023/09/21 00:27:58;;;;;;;2.15;1.70;;;16.10;99.90;;;;;;5016216;28;20025;-79
2023/09/21 00:30:23;;;;;;;1.50;1.35;;;16.10;99.90;;;;;;5002374;28;20483;-80
2023/09/21 00:32:49;;;;;;;3.97;1.80;;;16.10;99.90;;;;;;5006344;28;20609;-79
2023/09/21 00:35:16;;;;;;;3.33;1.98;;;16.10;99.90;;;;;;5007488;28;20425;-80
2023/09/21 00:37:43;;;;;;;2.35;1.40;;;16.10;99.90;;;;;;4998770;28;20027;-82
2023/09/21 00:40:17;;;;;;;2.50;1.70;;;16.10;99.90;;;;;;5003631;28;20109;-82
2023/09/21 00:42:44;;;;;;;1.55;1.20;;;16.10;99.90;;;;;;4990714;28;20189;-79
2023/09/21 00:45:10;;;;;;;1.42;1.33;;;16.10;99.90;;;;;;5012919;28;20461;-79
2023/09/21 00:47:45;;;;;;;2.35;1.30;;;16.10;99.90;;;;;;5001998;28;20034;-79
2023/09/21 00:50:12;;;;;;;3.03;1.73;;;16.10;99.90;;;;;;5004289;28;20014;-80
2023/09/21 00:52:40;;;;;;;2.22;1.60;;;16.10;99.90;;;;;;5008438;28;20022;-81
2023/09/21 00:55:08;;;;;;;2.67;1.48;;;16.00;99.90;;;;;;5002334;28;20096;-80
2023/09/21 00:57:36;;;;;;;2.65;1.35;;;16.00;99.90;;;;;;4999164;28;20018;-80
2023/09/21 01:00:07;;;;;;;4.10;1.60;;;16.00;99.90;;;;;;5004611;28;20022;-79
2023/09/21 01:02:32;;;;;;;1.08;0.98;;;16.00;99.90;;;;;;5000741;28;20105;-80
2023/09/21 01:05:00;;;;;;;2.30;1.20;;;16.00;99.90;;;;;;5003552;28;20112;-79
2023/09/21 01:07:29;;;;;;;1.70;1.52;;;16.00;99.90;;;;;;4994260;28;20176;-78
2023/09/21 01:09:55;;;;;;;3.03;1.88;;;16.00;99.90;;;;;;5005021;28;20072;-80
2023/09/21 01:12:22;;;;;;;1.70;1.50;;;16.00;99.90;;;;;;5002487;28;20525;-79
2023/09/21 01:15:04;;;;;;;1.95;1.60;;;16.00;99.90;;;;;;5018844;28;20033;-79
2023/09/21 01:17:30;;;;;;;2.60;1.30;;;16.00;99.90;;;;;;5004033;28;20134;-79
2023/09/21 01:19:56;;;;;;;2.60;1.30;;;16.00;99.90;;;;;;5004796;28;20075;-80
2023/09/21 01:22:23;;;;;;;3.70;1.38;;;16.00;99.90;;;;;;5005369;28;20022;-80
2023/09/21 01:24:49;;;;;;;2.13;1.55;;;15.90;99.90;;;;;;5004587;28;20106;-79
2023/09/21 01:27:14;;;;;;;2.10;1.70;;;16.00;99.90;;;;;;5015117;28;20482;-81
2023/09/21 01:29:41;;;;;;;3.47;1.55;;;15.90;99.90;;;;;;5004662;28;20097;-81
2023/09/21 01:32:06;;;;;;;3.13;1.75;;;15.90;99.90;;;;;;4999529;28;20832;-81
2023/09/21 01:34:33;;;;;;;2.75;1.60;;;16.00;99.90;;;;;;4998706;28;20026;-80
2023/09/21 01:36:58;;;;;;;3.47;1.38;;;15.90;99.90;;;;;;5005967;28;20784;-81
2023/09/21 01:39:24;;;;;;;2.15;1.60;;;15.90;99.90;;;;;;4999526;28;20046;-79
2023/09/21 01:41:53;;;;;;;1.42;1.33;;;15.90;99.90;;;;;;5011766;28;20049;-80
2023/09/21 01:44:21;;;;;;;1.73;1.50;;;15.90;99.90;;;;;;5005908;28;20022;-81
2023/09/21 01:46:48;;;;;;;2.25;1.30;;;15.90;99.90;;;;;;5020221;28;20026;-81
2023/09/21 01:49:14;;;;;;;1.35;1.20;;;15.90;99.90;;;;;;5017674;28;20346;-80
2023/09/21 01:51:39;;;;;;;2.53;1.33;;;15.90;99.90;;;;;;5013420;28;20025;-79
2023/09/21 01:54:07;;;;;;;4.10;1.60;;;15.90;99.90;;;;;;5010781;28;20086;-80
2023/09/21 01:56:33;;;;;;;5.50;1.50;;;15.90;99.90;;;;;;5012537;28;20130;-80
2023/09/21 01:58:58;;;;;;;1.75;1.35;;;15.90;99.90;;;;;;5004405;28;20043;-79
2023/09/21 02:01:24;;;;;;;1.73;1.23;;;15.90;99.90;;;;;;5009468;28;20477;-79
2023/09/21 02:03:51;;;;;;;1.60;1.13;;;15.90;99.90;;;;;;5009093;28;20037;-81
2023/09/21 02:06:16;;;;;;;2.03;1.73;;;15.90;99.90;;;;;;5006577;28;20026;-81
2023/09/21 02:08:42;;;;;;;1.80;1.55;;;15.90;99.90;;;;;;5002378;28;20080;-81
2023/09/21 02:11:07;;;;;;;1.70;1.50;;;15.80;99.90;;;;;;5013706;28;20014;-79
2023/09/21 02:13:33;;;;;;;2.58;1.67;;;15.80;99.90;;;;;;5009303;28;20022;-81
2023/09/21 02:15:59;;;;;;;2.92;2.13;;;15.80;99.90;;;;;;5009961;28;20057;-79
2023/09/21 02:18:24;;;;;;;2.03;1.35;;;15.80;99.90;;;;;;5000032;28;20018;-79
2023/09/21 02:20:50;;;;;;;2.60;1.38;;;15.80;99.90;;;;;;5008215;28;20042;-79
2023/09/21 02:23:17;;;;;;;2.42;1.48;;;15.70;99.90;;;;;;5000682;28;20018;-78
2023/09/21 02:25:43;;;;;;;2.20;1.50;;;15.70;99.90;;;;;;5006724;28;20025;-80
2023/09/21 02:28:09;;;;;;;2.45;1.40;;;15.70;99.90;;;;;;5015355;28;20025;-79
2023/09/21 02:30:37;;;;;;;2.45;1.80;;;15.70;99.90;;;;;;5005542;28;20091;-79
2023/09/21 02:33:04;;;;;;;2.15;1.58;;;15.70;99.90;;;;;;5012061;28;20029;-79
2023/09/21 02:35:33;;;;;;;2.85;1.70;;;15.70;99.90;;;;;;5005400;28;20496;-79
2023/09/21 02:38:00;;;;;;;4.13;1.55;;;15.70;99.90;;;;;;5003399;28;20011;-79
2023/09/21 02:40:25;;;;;;;2.42;1.67;;;15.70;99.90;;;;;;5000487;28;20031;-79
2023/09/21 02:42:55;;;;;;;1.70;1.25;;;15.60;99.90;;;;;;5006578;28;20277;-81
2023/09/21 02:45:29;;;;;;;2.33;1.60;;;15.60;99.90;;;;;;4994953;28;20014;-79
2023/09/21 02:48:00;;;;;;;1.30;1.20;;;15.60;99.90;;;;;;5005656;28;20040;-79
2023/09/21 02:50:27;;;;;;;1.50;1.40;;;15.60;99.90;;;;;;4998624;28;20096;-80
2023/09/21 02:52:54;;;;;;;1.75;1.65;;;15.50;99.90;;;;;;5010823;28;20018;-79
2023/09/21 02:55:21;;;;;;;2.35;1.50;;;15.50;99.90;;;;;;5005606;28;20014;-78
2023/09/21 02:57:54;;;;;;;2.03;1.45;;;15.50;99.90;;;;;;5005433;28;20117;-80
2023/09/21 03:00:26;;;;;;;2.45;1.38;;;15.50;99.90;;;;;;5011494;28;20377;-80
2023/09/21 03:02:55;;;;;;;2.03;1.50;;;15.50;99.90;;;;;;5013035;28;20437;-82
2023/09/21 03:05:21;;;;;;;2.22;1.67;;;15.50;99.90;;;;;;5001538;28;20457;-79
2023/09/21 03:07:48;;;;;;;4.28;1.73;;;15.50;99.90;;;;;;5005908;28;20094;-81
2023/09/21 03:10:16;;;;;;;1.83;1.35;;;15.50;99.90;;;;;;4998077;28;20109;-79
2023/09/21 03:12:42;;;;;;;4.50;1.90;;;15.40;99.90;;;;;;5007565;28;20052;-79
2023/09/21 03:15:14;;;;;;;2.72;1.40;;;15.40;99.90;;;;;;5000329;28;20054;-79
2023/09/21 03:17:40;;;;;;;3.40;1.70;;;15.40;99.90;;;;;;5000460;28;20050;-79
2023/09/21 03:20:09;;;;;;;3.60;1.50;;;15.40;99.90;;;;;;5005202;28;20026;-79
2023/09/21 03:22:35;;;;;;;1.45;1.35;;;15.40;99.90;;;;;;5011609;28;20030;-81
2023/09/21 03:25:01;;;;;;;1.60;1.30;;;15.40;99.90;;;;;;5001742;28;20057;-79
2023/09/21 03:27:26;;;;;;;2.40;1.50;;;15.40;99.90;;;;;;5003647;28;20073;-80
2023/09/21 03:29:53;;;;;;;2.92;1.55;;;15.40;99.90;;;;;;5001394;28;20026;-80
2023/09/21 03:32:18;;;;;;;1.90;1.40;;;15.30;99.90;;;;;;5002656;28;20105;-80
2023/09/21 03:34:45;;;;;;;2.47;1.70;;;15.30;99.90;;;;;;5004830;28;20075;-80
2023/09/21 03:37:11;;;;;;;2.13;1.83;;;15.30;99.90;;;;;;5006806;28;20064;-79
2023/09/21 03:39:37;;;;;;;3.47;1.33;;;15.30;99.90;;;;;;5001221;28;20030;-79
2023/09/21 03:42:03;;;;;;;2.22;1.80;;;15.30;99.90;;;;;;5002137;28;20045;-79
2023/09/21 03:44:29;;;;;;;1.83;1.63;;;15.30;99.90;;;;;;5020142;28;20017;-81
2023/09/21 03:46:55;;;;;;;1.92;1.63;;;15.30;99.90;;;;;;5001551;28;20025;-81
2023/09/21 03:49:21;;;;;;;2.47;2.08;;;15.30;99.90;;;;;;5011843;28;20105;-80
2023/09/21 03:51:47;;;;;;;2.30;1.67;;;15.30;99.90;;;;;;5007244;28;20021;-80
2023/09/21 03:54:15;;;;;;;2.42;1.50;;;15.30;99.90;;;;;;5003835;28;20533;-80
2023/09/21 03:56:41;;;;;;;1.90;1.33;;;15.20;99.90;;;;;;5001455;28;20066;-81
2023/09/21 03:59:07;;;;;;;1.88;1.67;;;15.20;99.90;;;;;;5005540;28;20030;-81
2023/09/21 04:01:34;;;;;;;2.42;1.60;;;15.20;99.90;;;;;;5001423;28;20022;-80
2023/09/21 04:04:13;;;;;;;1.88;1.70;;;15.20;99.90;;;;;;4998363;28;20019;-81
2023/09/21 04:06:38;;;;;;;3.20;1.85;;;15.20;99.90;;;;;;4997167;28;20022;-79
2023/09/21 04:09:06;;;;;;;1.85;1.50;;;15.20;99.90;;;;;;5006434;28;20801;-79
2023/09/21 04:11:34;;;;;;;3.35;1.70;;;15.20;99.90;;;;;;4992222;28;20022;-79
2023/09/21 04:13:59;;;;;;;1.60;1.33;;;15.10;99.90;;;;;;5003524;28;20025;-79
2023/09/21 04:16:26;;;;;;;2.67;1.80;;;15.20;99.90;;;;;;4997389;28;20413;-79
2023/09/21 04:18:52;;;;;;;3.42;1.67;;;15.20;99.90;;;;;;5008100;28;20037;-80
2023/09/21 04:21:17;;;;;;;4.50;1.40;;;15.20;99.90;;;;;;5008154;28;20018;-81
2023/09/21 04:23:43;;;;;;;4.10;1.42;;;15.20;99.90;;;;;;5012097;28;20026;-79
2023/09/21 04:26:10;;;;;;;2.35;2.15;;;15.10;99.90;;;;;;5003215;28;20527;-79
2023/09/21 04:28:36;;;;;;;2.38;1.45;;;15.10;99.90;;;;;;5000739;28;20073;-80
2023/09/21 04:31:01;;;;;;;3.28;2.10;;;15.10;99.90;;;;;;5004515;28;20054;-79
2023/09/21 04:33:27;;;;;;;1.80;1.58;;;15.10;99.90;;;;;;5008564;28;20025;-79
2023/09/21 04:35:52;;;;;;;3.53;1.65;;;15.20;99.90;;;;;;5005163;28;20457;-82
2023/09/21 04:38:18;;;;;;;1.85;1.60;;;15.10;99.90;;;;;;5005036;28;20071;-80
2023/09/21 04:40:44;;;;;;;3.35;1.70;;;15.20;99.90;;;;;;5011167;28;20026;-80
2023/09/21 04:43:09;;;;;;;2.67;1.80;;;15.10;99.90;;;;;;5000653;28;20053;-79
2023/09/21 04:45:35;;;;;;;2.50;1.52;;;15.20;99.90;;;;;;5006163;28;20119;-80
2023/09/21 04:48:03;;;;;;;3.25;1.90;;;15.10;99.90;;;;;;5006279;28;20478;-81
2023/09/21 04:50:29;;;;;;;2.88;1.50;;;15.20;99.90;;;;;;5010035;28;20117;-80
2023/09/21 04:52:54;;;;;;;2.55;2.00;;;15.20;99.90;;;;;;5007336;28;20109;-80
2023/09/21 04:55:20;;;;;;;1.92;1.52;;;15.20;99.90;;;;;;5007309;28;20462;-79
2023/09/21 04:57:46;;;;;;;2.10;1.60;;;15.20;99.90;;;;;;5003762;28;20306;-79
2023/09/21 05:00:14;;;;;;;2.30;1.50;;;15.20;99.90;;;;;;5001936;28;20445;-79
2023/09/21 05:02:40;;;;;;;2.17;1.80;;;15.20;99.90;;;;;;4999531;28;20029;-79
2023/09/21 05:05:06;;;;;;;1.83;1.60;;;15.20;99.90;;;;;;5005961;28;20051;-78
2023/09/21 05:07:35;;;;;;;2.03;1.70;;;15.20;99.90;;;;;;4997447;28;20014;-80
2023/09/21 05:10:01;;;;;;;3.05;1.70;;;15.20;99.90;;;;;;4998573;28;20026;-79
2023/09/21 05:12:27;;;;;;;1.85;1.30;;;15.20;99.90;;;;;;5004140;28;20016;-79
2023/09/21 05:14:53;;;;;;;2.85;1.75;;;15.20;99.90;;;;;;5002755;28;20018;-78
2023/09/21 05:17:18;;;;;;;1.90;1.60;;;15.20;99.90;;;;;;4993662;28;20073;-81
2023/09/21 05:19:44;;;;;;;1.73;1.52;;;15.20;99.90;;;;;;5002722;28;21561;-79
2023/09/21 05:22:10;;;;;;;2.55;2.00;;;15.20;99.90;;;;;;5004502;28;20555;-79
2023/09/21 05:24:36;;;;;;;3.00;1.90;;;15.20;99.90;;;;;;4999248;28;20029;-78
2023/09/21 05:27:06;;;;;;;2.53;1.40;;;15.20;99.90;;;;;;4999672;28;20026;-80
2023/09/21 05:29:32;;;;;;;3.00;1.77;;;15.30;99.90;;;;;;5000314;28;20018;-78
2023/09/21 05:31:57;;;;;;;2.88;1.58;;;15.30;99.90;;;;;;5003308;28;20019;-79
2023/09/21 05:34:26;;;;;;;1.90;1.65;;;15.30;99.90;;;;;;5000866;28;20370;-79
2023/09/21 05:36:52;;;;;;;1.50;1.27;;;15.30;99.90;;;;;;5000621;28;20029;-80
2023/09/21 05:39:19;;;;;;;1.33;1.23;;;15.30;99.90;;;;;;4998522;28;20021;-80
2023/09/21 05:41:45;;;;;;;2.10;1.42;;;15.30;99.90;;;;;;5007640;28;20033;-80
2023/09/21 05:44:11;;;;;;;2.13;1.30;;;15.30;99.90;;;;;;5001097;28;20144;-81
2023/09/21 05:46:38;;;;;;;2.20;1.95;;;15.30;99.90;;;;;;4999257;28;20085;-79
2023/09/21 05:49:04;;;;;;;2.45;1.77;;;15.30;99.90;;;;;;5003967;28;20086;-79
2023/09/21 05:51:30;;;;;;;1.80;1.50;;;15.30;99.90;;;;;;5001146;28;20006;-80
2023/09/21 05:53:56;;;;;;;3.45;1.73;;;15.30;99.90;;;;;;5010777;28;20493;-83
2023/09/21 05:56:21;;;;;;;3.13;2.00;;;15.30;99.90;;;;;;5005673;28;20018;-82
2023/09/21 05:58:47;;;;;;;1.52;1.40;;;15.30;99.90;;;;;;5001197;28;20120;-82
2023/09/21 06:01:13;;;;;;;1.80;1.67;;;15.30;99.90;;;;;;5004672;28;20010;-79
2023/09/21 06:03:39;;;;;;;2.40;1.63;;;15.30;99.90;;;;;;4996624;28;20092;-80
2023/09/21 06:06:07;;;;;;;3.42;1.85;;;15.30;99.90;;;;;;5013182;28;20030;-80
2023/09/21 06:08:36;;;;;;;3.00;1.70;;;15.40;99.90;;;;;;5005024;28;20048;-80
2023/09/21 06:11:03;;;;;;;2.70;1.60;;;15.40;99.90;;;;;;5003511;28;20129;-80
2023/09/21 06:13:29;;;;;;;2.20;1.80;;;15.40;99.90;;;;;;5005035;28;20013;-80
2023/09/21 06:15:54;;;;;;;1.85;1.42;;;15.40;99.90;;;;;;5002783;28;20021;-81
2023/09/21 06:18:22;;;;;;;2.53;1.45;;;15.40;99.90;;;;;;5001175;28;20025;-81
2023/09/21 06:20:48;;;;;;;2.35;1.35;;;15.50;99.90;;;;;;4996404;28;20022;-80
2023/09/21 06:23:15;;;;;;;3.60;1.83;;;15.50;99.90;;;;;;5002113;28;20172;-80
2023/09/21 06:25:41;;;;;;;1.70;1.60;;;15.50;99.90;;;;;;4999767;28;20069;-80
2023/09/21 06:28:07;;;;;;;2.13;1.27;;;15.50;99.90;;;;;;5008136;28;20126;-80
2023/09/21 06:30:33;;;;;;;2.40;1.63;;;15.60;99.90;;;;;;5005883;28;20038;-80
2023/09/21 06:32:58;;;;;;;2.38;1.75;;;15.70;99.90;;;;;;5002341;28;20049;-82
2023/09/21 06:35:24;;;;;;;3.88;1.70;;;15.80;99.90;;;;;;5006641;28;20058;-80
2023/09/21 06:37:54;;;;;;;2.60;2.10;;;15.70;99.90;;;;;;5004895;28;20183;-80
2023/09/21 06:40:25;;;;;;;1.90;1.70;;;15.80;99.90;;;;;;5008533;28;20466;-80
2023/09/21 06:42:52;;;;;;;2.00;1.70;;;15.90;99.90;;;;;;5004292;28;20022;-80
2023/09/21 06:45:18;;;;;;;1.95;1.75;;;15.90;99.90;;;;;;5005057;28;20060;-80
2023/09/21 06:47:47;;;;;;;4.32;2.05;;;16.00;99.90;;;;;;5006747;28;20029;-80
2023/09/21 06:50:14;;;;;;;2.92;2.20;;;16.00;99.90;;;;;;5000382;28;20022;-78
2023/09/21 06:52:40;;;;;;;2.78;1.65;;;16.10;99.90;;;;;;4999231;28;20026;-80
2023/09/21 06:55:06;;;;;;;5.35;1.77;;;16.20;99.90;;;;;;5009258;28;20033;-79
2023/09/21 06:57:34;;;;;;;3.60;1.85;;;16.30;99.90;;;;;;5002857;28;20046;-82
2023/09/21 07:00:01;;;;;;;1.90;1.48;;;16.30;99.90;;;;;;5003003;28;20109;-79
2023/09/21 07:02:26;;;;;;;2.28;1.85;;;16.40;99.90;;;;;;5006944;28;20019;-80
2023/09/21 07:04:55;;;;;;;3.20;1.83;;;16.50;99.90;;;;;;5017600;28;20030;-83
2023/09/21 07:07:21;;;;;;;2.40;1.73;;;16.50;99.90;;;;;;5010318;28;20065;-82
2023/09/21 07:09:46;;;;;;;2.03;1.52;;;16.60;99.90;;;;;;5004804;28;20504;-81
2023/09/21 07:12:12;;;;;;;2.20;1.50;;;16.60;99.90;;;;;;5009162;28;20037;-81
2023/09/21 07:14:39;;;;;;;1.80;1.55;;;16.70;99.90;;;;;;5008610;28;20049;-80
2023/09/21 07:17:05;;;;;;;2.20;1.40;;;16.80;99.90;;;;;;5002606;28;20559;-80
2023/09/21 07:19:31;;;;;;;3.35;2.03;;;16.90;99.90;;;;;;5009367;28;20022;-80
2023/09/21 07:21:57;;;;;;;2.63;1.98;;;17.00;99.90;;;;;;5009199;28;20438;-80
2023/09/21 07:24:23;;;;;;;1.85;1.75;;;17.10;99.90;;;;;;5011413;28;20634;-80
2023/09/21 07:26:49;;;;;;;3.03;1.63;;;17.20;99.90;;;;;;5009809;28;20026;-81
2023/09/21 07:29:14;;;;;;;4.38;1.98;;;17.30;99.90;;;;;;5009274;28;20033;-81
2023/09/21 07:31:40;;;;;;;1.80;1.70;;;17.40;99.90;;;;;;5008435;28;20022;-83
2023/09/21 07:34:06;;;;;;;3.67;1.70;;;17.50;99.90;;;;;;5007469;28;20180;-80
2023/09/21 07:36:38;;;;;;;1.48;1.38;;;17.60;99.90;;;;;;5013188;28;20386;-81
2023/09/21 07:39:08;;;;;;;2.45;1.83;;;17.70;99.90;;;;;;5002428;28;20119;-81
2023/09/21 07:41:34;;;;;;;1.80;1.70;;;17.80;99.90;;;;;;5007504;28;20524;-82
2023/09/21 07:44:00;;;;;;;1.98;1.60;;;18.00;99.90;;;;;;5009636;28;20076;-79
2023/09/21 07:46:25;;;;;;;2.13;1.42;;;18.10;99.90;;;;;;5011132;28;20022;-80
2023/09/21 07:48:51;;;;;;;1.88;1.50;;;18.20;99.90;;;;;;5003435;28;20382;-81
2023/09/21 07:51:17;;;;;;;3.83;1.63;;;18.40;99.90;;;;;;5010357;28;20022;-83
2023/09/21 07:53:43;;;;;;;3.10;1.50;;;18.50;99.90;;;;;;5008887;28;20053;-80
2023/09/21 07:56:12;;;;;;;1.67;1.50;;;18.60;99.90;;;;;;5001261;28;20022;-80
2023/09/21 07:58:38;;;;;;;2.40;1.85;;;18.70;99.90;;;;;;5015520;28;20497;-83
2023/09/21 08:01:04;;;;;;;2.85;1.55;;;18.80;99.90;;;;;;5007942;28;20045;-81
2023/09/21 08:03:29;;;;;;;2.25;1.67;;;18.90;99.90;;;;;;5001869;28;20030;-81
2023/09/21 08:05:55;;;;;;;2.75;2.00;;;19.00;99.90;;;;;;5011407;28;20057;-80
2023/09/21 08:08:24;;;;;;;2.13;1.48;;;19.10;99.90;;;;;;5005432;28;20034;-80
2023/09/21 08:10:51;;;;;;;2.13;1.58;;;19.30;99.90;;;;;;5010828;28;21311;-81
2023/09/21 08:13:17;;;;;;;1.92;1.25;;;19.40;99.90;;;;;;5008484;28;20018;-79
2023/09/21 08:15:43;;;;;;;2.80;1.77;;;19.50;99.90;;;;;;5008691;28;20659;-81
2023/09/21 08:18:10;;;;;;;2.10;1.80;;;19.60;99.90;;;;;;5010064;28;20045;-81
2023/09/21 08:20:39;;;;;;;2.15;1.73;;;19.70;99.90;;;;;;5002057;28;20038;-79
2023/09/21 08:23:06;;;;;;;2.72;1.65;;;19.70;99.90;;;;;;5005997;28;20030;-79
2023/09/21 08:25:33;;;;;;;3.25;1.73;;;19.70;99.90;;;;;;5007742;28;20022;-79
2023/09/21 08:27:59;;;;;;;2.83;1.38;;;19.80;99.90;;;;;;5004572;28;20679;-79
2023/09/21 08:30:26;;;;;;;2.92;1.65;;;19.90;99.90;;;;;;5003857;28;20120;-79
2023/09/21 08:32:51;;;;;;;2.92;1.60;;;20.00;99.90;;;;;;5000694;28;20025;-79
2023/09/21 08:35:17;;;;;;;2.13;1.55;;;20.00;99.90;;;;;;5005251;28;20034;-79
2023/09/21 08:37:43;;;;;;;1.77;1.48;;;20.10;99.90;;;;;;5000001;28;20030;-79
2023/09/21 08:40:09;;;;;;;2.13;1.70;;;20.10;99.90;;;;;;5003318;28;20097;-79
2023/09/21 08:42:36;;;;;;;2.50;1.58;;;20.20;99.90;;;;;;5005270;28;20034;-80
2023/09/21 08:45:09;;;;;;;3.58;1.60;;;20.20;99.90;;;;;;5005336;28;20391;-79
2023/09/21 08:47:37;;;;;;;2.72;1.60;;;20.30;99.90;;;;;;4994144;28;20916;-80
2023/09/21 08:50:03;;;;;;;2.25;1.80;;;20.40;99.90;;;;;;5004822;28;20051;-80
2023/09/21 08:52:32;;;;;;;2.15;1.95;;;20.50;99.90;;;;;;4996840;28;20026;-79
2023/09/21 08:54:58;;;;;;;3.05;1.58;;;20.50;99.90;;;;;;5007593;28;20025;-80
2023/09/21 08:57:25;;;;;;;3.70;1.95;;;20.60;99.90;;;;;;5005054;28;20013;-79
2023/09/21 08:59:55;;;;;;;2.05;1.75;;;20.60;99.90;;;;;;5000521;28;20117;-79
2023/09/21 09:02:22;;;;;;;2.95;1.90;;;20.60;99.90;;;;;;5007782;28;20678;-83
2023/09/21 09:04:49;;;;;;;3.50;1.58;;;20.70;99.90;;;;;;5002696;28;20026;-82
2023/09/21 09:07:15;;;;;;;1.85;1.45;;;20.70;99.90;;;;;;5003588;28;20026;-79
2023/09/21 09:09:40;;;;;;;1.48;1.17;;;20.80;99.90;;;;;;5002777;28;20053;-79
2023/09/21 09:12:24;;;;;;;2.60;1.83;;;20.80;99.90;;;;;;5001535;28;20065;-81
2023/09/21 09:14:51;;;;;;;3.55;2.00;;;20.80;99.90;;;;;;5003389;28;20072;-81
2023/09/21 09:17:17;;;;;;;3.22;1.45;;;20.80;99.90;;;;;;5008340;28;20225;-79
2023/09/21 09:19:43;;;;;;;2.13;1.58;;;20.70;99.90;;;;;;4999612;28;20026;-81
2023/09/21 09:22:14;;;;;;;4.95;2.00;;;20.70;99.90;;;;;;4998504;28;20042;-80
2023/09/21 09:24:39;;;;;;;2.50;1.75;;;20.80;99.90;;;;;;4994950;28;20523;-80
2023/09/21 09:27:05;;;;;;;2.63;1.58;;;20.90;99.90;;;;;;5004607;28;20065;-80
2023/09/21 09:29:30;;;;;;;2.65;1.63;;;20.90;99.90;;;;;;5002047;28;20026;-82
2023/09/21 09:31:56;;;;;;;2.45;1.65;;;21.10;99.90;;;;;;5006152;28;20030;-81
2023/09/21 09:34:22;;;;;;;1.55;1.27;;;21.10;99.90;;;;;;5006110;28;20032;-81
2023/09/21 09:36:51;;;;;;;1.77;1.50;;;21.30;99.90;;;;;;5003489;28;20045;-81
2023/09/21 09:39:23;;;;;;;5.70;1.73;;;21.40;99.90;;;;;;5000902;28;20024;-79
2023/09/21 09:41:50;;;;;;;2.75;1.98;;;21.60;99.90;;;;;;4999320;28;20045;-79
2023/09/21 09:44:21;;;;;;;1.90;1.45;;;21.80;99.90;;;;;;4996847;28;20037;-83
2023/09/21 09:46:49;;;;;;;2.08;1.63;;;21.80;99.90;;;;;;5003416;28;20026;-80
2023/09/21 09:49:18;;;;;;;1.83;1.60;;;21.90;99.90;;;;;;4998925;28;20054;-79
2023/09/21 09:51:45;;;;;;;1.55;1.30;;;21.90;99.90;;;;;;5002857;28;20073;-82
2023/09/21 09:54:12;;;;;;;3.47;1.90;;;22.00;99.90;;;;;;5009105;28;20026;-79
2023/09/21 09:56:42;;;;;;;1.92;1.40;;;22.00;99.90;;;;;;5004597;28;20362;-79
2023/09/21 09:59:12;;;;;;;1.77;1.50;;;22.00;99.90;;;;;;4998247;28;20030;-79
2023/09/21 10:01:44;;;;;;;3.78;1.70;;;22.10;99.90;;;;;;5009987;28;20041;-79
2023/09/21 10:04:10;;;;;;;3.20;1.33;;;22.10;99.90;;;;;;5014354;28;20037;-79
2023/09/21 10:06:36;;;;;;;1.77;1.48;;;22.10;99.90;;;;;;5012240;28;20018;-79
2023/09/21 10:09:10;;;;;;;1.60;1.48;;;22.20;99.90;;;;;;5014957;28;20029;-80
2023/09/21 10:11:38;;;;;;;2.58;1.58;;;22.20;99.90;;;;;;5006411;28;20014;-79
2023/09/21 10:14:07;;;;;;;1.98;1.27;;;22.30;99.90;;;;;;5008945;28;20100;-80
2023/09/21 10:16:38;;;;;;;2.20;1.35;;;22.30;99.90;;;;;;4998506;28;20022;-79
2023/09/21 10:19:04;;;;;;;1.30;1.20;;;22.40;99.90;;;;;;5020214;28;20022;-79
2023/09/21 10:21:31;;;;;;;2.22;1.30;;;22.50;99.90;;;;;;5005362;28;20029;-80
2023/09/21 10:24:13;;;;;;;1.58;1.48;;;22.60;99.90;;;;;;5007944;28;20036;-80
2023/09/21 10:26:43;;;;;;;2.42;1.63;;;22.70;99.90;;;;;;4998300;28;20498;-79
2023/09/21 10:29:12;;;;;;;1.80;1.48;;;22.70;99.90;;;;;;5002889;28;20026;-80
2023/09/21 10:31:39;;;;;;;2.50;1.52;;;22.80;99.90;;;;;;4999412;28;20033;-80
2023/09/21 10:34:08;;;;;;;2.75;1.55;;;22.90;99.90;;;;;;5003178;28;20053;-79
2023/09/21 10:36:38;;;;;;;3.33;1.60;;;22.90;99.90;;;;;;5011832;28;20018;-80
2023/09/21 10:39:06;;;;;;;2.10;1.70;;;23.00;99.90;;;;;;5014726;28;20030;-81
2023/09/21 10:41:33;;;;;;;1.20;1.10;;;23.00;99.90;;;;;;5012818;28;20074;-82
2023/09/21 10:44:02;;;;;;;3.53;1.40;;;23.10;99.90;;;;;;5015597;28;20099;-85
2023/09/21 10:46:31;;;;;;;5.13;1.73;;;23.10;99.90;;;;;;5013953;28;20667;-81
2023/09/21 10:49:09;;;;;;;2.95;1.30;;;23.20;99.90;;;;;;5007330;28;20022;-80
2023/09/21 10:51:39;;;;;;;2.03;1.60;;;23.20;99.90;;;;;;5003908;28;20049;-80
2023/09/21 10:54:10;;;;;;;1.33;1.23;;;23.20;99.90;;;;;;5007104;28;20037;-81
2023/09/21 10:56:41;;;;;;;3.33;1.90;;;23.30;99.90;;;;;;5002415;28;20026;-81
2023/09/21 10:59:07;;;;;;;3.20;1.95;;;23.30;99.90;;;;;;5012860;28;20014;-82
2023/09/21 11:01:36;;;;;;;2.80;1.30;;;23.40;99.90;;;;;;5003141;28;20064;-80
2023/09/21 11:04:03;;;;;;;3.15;1.52;;;23.40;99.90;;;;;;5004821;28;20096;-80
2023/09/21 11:06:28;;;;;;;3.03;1.48;;;23.50;99.90;;;;;;5012391;28;20030;-79
2023/09/21 11:08:55;;;;;;;2.38;1.27;;;23.50;99.90;;;;;;5005493;28;20025;-80
2023/09/21 11:11:21;;;;;;;1.38;1.27;;;23.70;99.90;;;;;;5011765;28;20024;-80
2023/09/21 11:13:51;;;;;;;2.92;1.42;;;23.70;99.90;;;;;;5005668;28;20343;-81
2023/09/21 11:16:17;;;;;;;1.63;1.38;;;23.80;99.90;;;;;;5011418;28;20025;-81
2023/09/21 11:18:43;;;;;;;1.92;1.40;;;23.90;99.90;;;;;;5010319;28;20022;-80
2023/09/21 11:21:09;;;;;;;4.30;1.60;;;24.00;99.90;;;;;;5004966;28;20053;-82
2023/09/21 11:23:36;;;;;;;3.20;1.30;;;24.10;99.90;;;;;;5010775;28;20030;-80
2023/09/21 11:26:05;;;;;;;2.28;1.65;;;24.20;99.90;;;;;;5010790;28;20022;-79
2023/09/21 11:28:32;;;;;;;3.70;1.67;;;24.30;99.90;;;;;;5000836;28;20026;-81
2023/09/21 11:30:58;;;;;;;2.45;1.20;;;24.30;99.90;;;;;;5004380;28;20057;-79
2023/09/21 11:33:27;;;;;;;1.25;1.13;;;24.30;99.90;;;;;;5000210;28;20046;-82
2023/09/21 11:35:52;;;;;;;1.90;1.30;;;24.20;99.90;;;;;;5006654;28;20061;-79
2023/09/21 11:38:21;;;;;;;1.65;1.20;;;24.10;99.90;;;;;;4999824;28;20469;-81
2023/09/21 11:40:49;;;;;;;1.40;1.30;;;24.10;99.90;;;;;;5008927;28;20034;-80
2023/09/21 11:43:16;;;;;;;1.67;1.58;;;24.10;99.90;;;;;;5007629;28;20034;-80
2023/09/21 11:45:46;;;;;;;2.10;1.30;;;24.10;99.90;;;;;;5001373;28;20037;-80
2023/09/21 11:48:12;;;;;;;2.95;1.73;;;24.10;99.90;;;;;;5006283;28;20477;-81
2023/09/21 11:50:39;;;;;;;3.53;1.33;;;24.00;99.90;;;;;;4997401;28;20110;-79
2023/09/21 11:53:08;;;;;;;3.75;1.65;;;24.00;99.90;;;;;;5007666;28;20034;-80
2023/09/21 11:55:36;;;;;;;3.05;1.42;;;24.10;99.90;;;;;;5009439;28;20026;-79
2023/09/21 11:58:16;;;;;;;1.85;1.35;;;24.10;99.90;;;;;;5002322;28;20736;-78
2023/09/21 12:03:41;;;;;;;4.72;1.45;;;24.30;99.90;;;;;;4994523;28;20582;-79
2023/09/21 12:06:06;;;;;;;2.15;1.40;;;24.40;99.90;;;;;;5002532;28;20033;-78
2023/09/21 12:08:33;;;;;;;1.33;1.10;;;24.40;99.90;;;;;;5000499;28;20046;-77
2023/09/21 12:10:58;;;;;;;1.67;1.27;;;24.50;99.90;;;;;;4999158;28;20029;-78
2023/09/21 12:13:24;;;;;;;3.13;1.60;;;24.50;99.90;;;;;;5002766;28;20024;-77
2023/09/21 12:15:55;;;;;;;2.35;1.20;;;24.50;99.90;;;;;;5004285;28;20025;-78
2023/09/21 12:18:21;;;;;;;3.63;1.50;;;24.60;99.90;;;;;;4995992;28;20033;-78
2023/09/21 12:20:53;;;;;;;1.60;1.38;;;24.60;99.90;;;;;;5003796;28;20022;-78
2023/09/21 12:23:19;;;;;;;1.58;1.00;;;24.50;99.90;;;;;;4997566;28;20031;-77
2023/09/21 12:25:46;;;;;;;1.60;1.30;;;24.50;99.90;;;;;;4999044;28;20080;-79
2023/09/21 12:28:12;;;;;;;3.30;1.25;;;24.50;99.90;;;;;;5001866;28;20030;-79
2023/09/21 12:30:41;;;;;;;1.85;1.42;;;24.40;99.90;;;;;;5001067;28;20037;-77
2023/09/21 12:33:07;;;;;;;1.67;1.25;;;24.40;99.90;;;;;;5004733;28;20114;-78
2023/09/21 12:35:32;;;;;;;2.28;1.50;;;24.40;99.90;;;;;;5003654;28;20665;-78
2023/09/21 12:37:58;;;;;;;2.40;1.25;;;24.30;99.90;;;;;;4996157;28;20098;-79
2023/09/21 12:40:23;;;;;;;2.15;1.42;;;24.30;99.90;;;;;;5003188;28;20060;-79
2023/09/21 12:42:49;;;;;;;2.08;1.30;;;24.30;99.90;;;;;;4993614;28;20097;-79
2023/09/21 12:45:15;;;;;;;1.65;1.55;;;24.40;99.90;;;;;;4995840;28;20036;-80
2023/09/21 12:47:46;;;;;;;1.55;1.10;;;24.50;99.90;;;;;;5000710;28;20038;-78
2023/09/21 12:50:13;;;;;;;1.23;1.08;;;24.50;99.90;;;;;;5005324;28;20044;-78